Time;durP1;ratioP1;P1;durP2;ratioP2;P2;SDS_P1;SDS_P2;PMS_P1;PMS_P2;Temp;Humidity;BMP_temperature;BMP_pressure;BME280_temperature;BME280_humidity;BME280_pressure;Samples;Min_cycle;Max_cycle;Signal;HPM_P1;HPM_P2
2023/07/14 00:01:56;;;;;;;;;;;16.20;86.70;;;;;;4968205;28;19910;-88
2023/07/14 00:04:31;;;;;;;;;;;16.10;87.50;;;;;;4984160;28;19933;-88
2023/07/14 00:06:57;;;;;;;;;;;16.10;87.80;;;;;;4986260;28;19921;-88
2023/07/14 00:09:25;;;;;;;;;;;16.10;87.30;;;;;;5013843;28;19914;-88
2023/07/14 00:11:51;;;;;;;;;;;16.20;87.00;;;;;;4979371;28;19914;-88
2023/07/14 00:14:19;;;;;;;;;;;16.10;86.70;;;;;;4974856;28;19929;-88
2023/07/14 00:16:45;;;;;;;;;;;16.10;86.50;;;;;;4968147;28;20405;-88
2023/07/14 00:19:17;;;;;;;;;;;16.10;85.90;;;;;;4970862;28;20008;-88
2023/07/14 00:21:49;;;;;;;;;;;16.10;86.10;;;;;;4970133;28;19925;-88
2023/07/14 00:24:19;;;;;;;;;;;16.10;86.30;;;;;;4965208;28;19914;-88
2023/07/14 00:26:47;;;;;;;;;;;16.10;86.10;;;;;;4967866;28;19914;-88
2023/07/14 00:29:34;;;;;;;;;;;16.30;85.70;;;;;;4968681;28;19913;-88
2023/07/14 00:32:00;;;;;;;;;;;16.20;86.00;;;;;;4970810;28;19914;-87
2023/07/14 00:34:25;;;;;;;;;;;16.20;86.10;;;;;;4970771;28;20309;-88
2023/07/14 00:36:53;;;;;;;;;;;16.20;86.00;;;;;;4970822;28;19913;-87
2023/07/14 00:39:19;;;;;;;;;;;16.20;86.00;;;;;;4967885;28;19968;-88
2023/07/14 00:41:45;;;;;;;;;;;16.10;86.50;;;;;;4971045;28;19914;-88
2023/07/14 00:44:17;;;;;;;;;;;16.10;86.50;;;;;;4969200;28;19926;-88
2023/07/14 00:46:51;;;;;;;;;;;16.10;86.70;;;;;;4967831;28;19914;-88
2023/07/14 00:49:22;;;;;;;;;;;16.10;86.80;;;;;;4967881;28;20039;-88
2023/07/14 00:52:03;;;;;;;;;;;16.20;86.10;;;;;;4968808;28;20407;-88
2023/07/14 00:54:28;;;;;;;;;;;16.10;86.50;;;;;;4967383;28;19914;-88
2023/07/14 00:56:55;;;;;;;;;;;16.10;86.40;;;;;;4968866;28;19914;-88
2023/07/14 00:59:25;;;;;;;;;;;16.00;87.30;;;;;;4977184;28;20395;-88
2023/07/14 01:02:09;;;;;;;;;;;16.10;87.40;;;;;;4970706;28;19918;-88
2023/07/14 01:04:39;;;;;;;;;;;16.10;87.80;;;;;;4968912;28;19910;-88
2023/07/14 01:07:05;;;;;;;;;;;16.10;88.00;;;;;;4991666;28;20008;-89
2023/07/14 01:09:31;;;;;;;;;;;16.10;87.70;;;;;;4974685;28;20299;-88
2023/07/14 01:11:59;;;;;;;;;;;16.10;87.20;;;;;;4972288;28;19932;-87
2023/07/14 01:14:26;;;;;;;;;;;16.10;87.30;;;;;;4967027;28;20360;-88
2023/07/14 01:16:53;;;;;;;;;;;16.10;87.50;;;;;;4983626;28;19914;-88
2023/07/14 01:19:51;;;;;;;;;;;16.10;87.40;;;;;;4973380;28;19936;-89
2023/07/14 01:22:17;;;;;;;;;;;16.10;87.70;;;;;;4981600;28;19926;-88
2023/07/14 01:24:51;;;;;;;;;;;16.10;86.60;;;;;;4971054;28;19910;-88
2023/07/14 01:27:17;;;;;;;;;;;16.10;86.50;;;;;;4970221;28;19922;-88
2023/07/14 01:29:43;;;;;;;;;;;16.20;86.40;;;;;;4971211;28;19933;-89
2023/07/14 01:32:15;;;;;;;;;;;16.20;86.20;;;;;;4977204;28;19921;-88
2023/07/14 01:34:43;;;;;;;;;;;16.30;86.00;;;;;;4974721;28;20542;-89
2023/07/14 01:37:08;;;;;;;;;;;16.20;86.30;;;;;;4962874;28;19921;-88
2023/07/14 01:39:37;;;;;;;;;;;16.10;86.50;;;;;;4968633;28;19914;-87
2023/07/14 01:42:10;;;;;;;;;;;16.20;86.40;;;;;;4970599;28;20287;-89
2023/07/14 01:44:36;;;;;;;;;;;16.20;86.50;;;;;;5001056;28;19916;-87
2023/07/14 01:47:02;;;;;;;;;;;16.10;87.00;;;;;;4972211;28;20271;-88
2023/07/14 01:49:27;;;;;;;;;;;16.10;87.30;;;;;;4973877;28;20301;-89
2023/07/14 01:51:56;;;;;;;;;;;16.10;87.20;;;;;;4990163;28;19975;-88
2023/07/14 01:54:33;;;;;;;;;;;16.10;87.10;;;;;;4969900;28;20005;-86
2023/07/14 01:57:03;;;;;;;;;;;16.10;86.90;;;;;;4985125;28;19933;-88
2023/07/14 01:59:36;;;;;;;;;;;16.10;86.80;;;;;;4978683;28;20366;-89
2023/07/14 02:02:02;;;;;;;;;;;16.10;86.50;;;;;;4973568;28;19984;-89
2023/07/14 02:04:30;;;;;;;;;;;16.10;86.90;;;;;;4973322;28;19930;-89
2023/07/14 02:06:56;;;;;;;;;;;16.10;86.70;;;;;;4973782;28;19909;-89
2023/07/14 02:09:23;;;;;;;;;;;16.00;85.80;;;;;;4971754;28;20391;-88
2023/07/14 02:11:51;;;;;;;;;;;16.20;84.40;;;;;;4974009;28;19945;-88
2023/07/14 02:14:17;;;;;;;;;;;16.10;84.60;;;;;;4970419;28;19924;-88
2023/07/14 02:17:35;;;;;;;;;;;;;;;;;;;;;
2023/07/14 02:22:47;;;;;;;;;;;15.90;86.60;;;;;;5006759;22;20014;-87
2023/07/14 02:25:17;;;;;;;;;;;15.80;87.50;;;;;;4985500;28;20304;-86
2023/07/14 02:27:43;;;;;;;;;;;15.70;87.30;;;;;;4980341;28;20405;-87
2023/07/14 02:30:12;;;;;;;;;;;15.70;86.20;;;;;;4977439;28;19914;-89
2023/07/14 02:32:40;;;;;;;;;;;15.80;86.30;;;;;;4975564;28;20529;-86
2023/07/14 02:35:30;;;;;;;;;;;15.70;86.60;;;;;;4970624;28;19948;-86
2023/07/14 02:38:03;;;;;;;;;;;15.70;87.50;;;;;;4987484;28;19914;-86
2023/07/14 02:40:35;;;;;;;;;;;15.60;87.90;;;;;;4981840;28;19929;-88
2023/07/14 02:43:24;;;;;;;;;;;15.60;87.60;;;;;;4974709;28;19910;-86
2023/07/14 02:46:01;;;;;;;;;;;15.60;87.70;;;;;;4974464;28;19965;-87
2023/07/14 02:48:38;;;;;;;;;;;15.70;87.30;;;;;;4977480;28;19929;-86
2023/07/14 02:51:04;;;;;;;;;;;15.60;87.40;;;;;;4996921;28;20056;-88
2023/07/14 02:53:29;;;;;;;;;;;15.60;87.40;;;;;;4976174;28;20330;-87
2023/07/14 02:55:55;;;;;;;;;;;15.60;87.90;;;;;;4971691;28;19918;-87
2023/07/14 02:58:20;;;;;;;;;;;15.60;87.70;;;;;;4975071;28;20379;-87
2023/07/14 03:00:46;;;;;;;;;;;15.50;88.10;;;;;;4970558;28;19937;-86
2023/07/14 03:03:12;;;;;;;;;;;15.50;88.30;;;;;;4975005;28;20394;-87
2023/07/14 03:05:37;;;;;;;;;;;15.50;88.00;;;;;;4975175;28;19914;-89
2023/07/14 03:08:07;;;;;;;;;;;15.50;88.00;;;;;;4982037;28;20007;-88
2023/07/14 03:10:32;;;;;;;;;;;15.40;88.10;;;;;;4976643;28;19924;-87
2023/07/14 03:12:57;;;;;;;;;;;15.30;88.50;;;;;;4989211;28;20054;-86
2023/07/14 03:15:24;;;;;;;;;;;15.20;88.60;;;;;;4986074;28;19928;-86
2023/07/14 03:17:50;;;;;;;;;;;15.10;88.90;;;;;;4969295;28;19924;-87
2023/07/14 03:20:16;;;;;;;;;;;15.10;89.10;;;;;;4970344;28;19914;-87
2023/07/14 03:22:41;;;;;;;;;;;15.20;88.90;;;;;;4970369;28;19924;-86
2023/07/14 03:25:07;;;;;;;;;;;15.20;88.60;;;;;;4973306;28;19927;-87
2023/07/14 03:27:32;;;;;;;;;;;15.20;88.30;;;;;;4968575;28;19918;-86
2023/07/14 03:29:58;;;;;;;;;;;15.30;88.20;;;;;;4971990;28;19924;-89
2023/07/14 03:32:23;;;;;;;;;;;15.20;88.20;;;;;;4973132;28;19924;-87
2023/07/14 03:34:49;;;;;;;;;;;15.20;87.90;;;;;;4972977;28;20662;-87
2023/07/14 03:37:14;;;;;;;;;;;15.30;87.90;;;;;;4972232;28;19940;-86
2023/07/14 03:39:40;;;;;;;;;;;15.30;87.60;;;;;;5009874;28;19935;-88
2023/07/14 03:42:05;;;;;;;;;;;15.20;87.60;;;;;;5007588;28;19914;-90
2023/07/14 03:44:32;;;;;;;;;;;15.10;87.90;;;;;;4992777;28;19902;-88
2023/07/14 03:46:58;;;;;;;;;;;15.10;88.20;;;;;;4983122;28;20016;-87
2023/07/14 03:49:24;;;;;;;;;;;15.10;87.70;;;;;;4973419;28;19945;-87
2023/07/14 03:51:49;;;;;;;;;;;15.20;87.50;;;;;;4974172;28;20284;-90
2023/07/14 03:54:15;;;;;;;;;;;15.10;87.90;;;;;;4994513;28;20035;-86
2023/07/14 03:56:42;;;;;;;;;;;15.10;88.30;;;;;;4995812;28;19914;-87
2023/07/14 03:59:07;;;;;;;;;;;15.10;88.30;;;;;;4977629;28;19949;-86
2023/07/14 04:01:33;;;;;;;;;;;15.10;88.40;;;;;;4991036;28;19914;-87
2023/07/14 04:03:58;;;;;;;;;;;15.10;88.30;;;;;;4978827;28;19935;-87
2023/07/14 04:06:24;;;;;;;;;;;15.10;88.60;;;;;;4973753;28;20632;-87
2023/07/14 04:08:50;;;;;;;;;;;15.10;88.60;;;;;;4981486;28;19917;-86
2023/07/14 04:11:16;;;;;;;;;;;15.10;88.70;;;;;;4985389;28;19910;-87
2023/07/14 04:13:41;;;;;;;;;;;15.20;89.00;;;;;;4991742;28;19921;-87
2023/07/14 04:16:07;;;;;;;;;;;15.20;89.00;;;;;;4974654;28;19914;-86
2023/07/14 04:18:33;;;;;;;;;;;15.30;88.90;;;;;;4974862;28;19969;-86
2023/07/14 04:21:02;;;;;;;;;;;15.30;89.00;;;;;;4975705;28;20289;-84
2023/07/14 04:23:28;;;;;;;;;;;15.40;89.00;;;;;;4970377;28;19953;-86
2023/07/14 04:25:53;;;;;;;;;;;15.50;89.00;;;;;;4973359;28;19924;-85
2023/07/14 04:28:19;;;;;;;;;;;15.60;88.70;;;;;;4973562;28;19913;-85
2023/07/14 04:30:52;;;;;;;;;;;15.60;88.80;;;;;;4974677;28;19924;-86
2023/07/14 04:33:17;;;;;;;;;;;15.70;88.50;;;;;;4990249;28;19961;-84
2023/07/14 04:35:42;;;;;;;;;;;15.70;88.70;;;;;;4971235;28;19914;-85
2023/07/14 04:38:08;;;;;;;;;;;15.90;88.30;;;;;;4983835;28;19914;-86
2023/07/14 04:40:36;;;;;;;;;;;15.90;87.80;;;;;;4969935;28;19924;-85
2023/07/14 04:43:02;;;;;;;;;;;16.00;88.10;;;;;;4978788;28;19918;-85
2023/07/14 04:45:27;;;;;;;;;;;16.10;87.90;;;;;;4984414;28;19920;-85
2023/07/14 04:47:53;;;;;;;;;;;16.20;87.50;;;;;;4981975;28;19914;-87
2023/07/14 04:50:18;;;;;;;;;;;16.20;87.20;;;;;;4972852;28;19921;-86
2023/07/14 04:52:44;;;;;;;;;;;16.40;86.70;;;;;;4989564;28;20389;-85
2023/07/14 04:55:09;;;;;;;;;;;16.40;86.50;;;;;;4981112;28;19936;-85
2023/07/14 04:57:35;;;;;;;;;;;16.50;86.40;;;;;;4978055;28;20058;-85
2023/07/14 05:00:00;;;;;;;;;;;16.50;83.90;;;;;;4968949;28;19925;-86
2023/07/14 05:02:26;;;;;;;;;;;16.60;84.80;;;;;;4983623;28;19914;-85
2023/07/14 05:05:08;;;;;;;;;;;16.70;85.10;;;;;;4966821;28;19921;-85
2023/07/14 05:07:33;;;;;;;;;;;16.70;84.10;;;;;;4972206;28;20369;-85
2023/07/14 05:09:59;;;;;;;;;;;16.80;84.10;;;;;;4969748;28;20041;-86
2023/07/14 05:12:24;;;;;;;;;;;16.80;83.80;;;;;;4972701;28;19914;-85
2023/07/14 05:14:50;;;;;;;;;;;16.80;84.90;;;;;;4968181;28;19914;-85
2023/07/14 05:17:15;;;;;;;;;;;16.90;84.40;;;;;;4983890;28;19940;-85
2023/07/14 05:19:41;;;;;;;;;;;17.00;83.40;;;;;;4970045;28;19914;-86
2023/07/14 05:22:06;;;;;;;;;;;17.00;82.90;;;;;;4981938;28;20009;-85
2023/07/14 05:24:32;;;;;;;;;;;17.00;82.40;;;;;;4969767;28;20312;-86
2023/07/14 05:26:59;;;;;;;;;;;17.10;83.00;;;;;;4989106;28;19921;-86
2023/07/14 05:29:25;;;;;;;;;;;17.10;83.60;;;;;;4976441;28;19918;-86
2023/07/14 05:31:51;;;;;;;;;;;17.20;83.80;;;;;;4984012;28;19914;-87
2023/07/14 05:34:16;;;;;;;;;;;17.20;84.10;;;;;;4969537;28;20407;-86
2023/07/14 05:36:42;;;;;;;;;;;17.20;83.90;;;;;;4971428;28;19917;-85
2023/07/14 05:39:09;;;;;;;;;;;17.30;84.50;;;;;;4969656;28;19921;-85
2023/07/14 05:41:34;;;;;;;;;;;17.30;85.00;;;;;;4988666;28;20077;-86
2023/07/14 05:44:01;;;;;;;;;;;17.30;84.80;;;;;;4986823;28;19990;-86
2023/07/14 05:46:26;;;;;;;;;;;17.40;83.50;;;;;;4969602;28;19913;-85
2023/07/14 05:48:52;;;;;;;;;;;17.30;82.50;;;;;;4966409;28;20338;-86
2023/07/14 05:51:18;;;;;;;;;;;17.50;83.40;;;;;;4968412;28;20001;-86
2023/07/14 05:53:43;;;;;;;;;;;17.50;83.40;;;;;;4975384;28;19925;-86
2023/07/14 05:56:09;;;;;;;;;;;17.50;84.10;;;;;;4975100;28;20038;-85
2023/07/14 05:58:34;;;;;;;;;;;17.50;83.50;;;;;;4979716;28;19914;-86
2023/07/14 06:01:00;;;;;;;;;;;17.50;83.90;;;;;;4971446;28;20293;-85
2023/07/14 06:03:28;;;;;;;;;;;17.50;84.00;;;;;;4971104;28;19917;-85
2023/07/14 06:05:56;;;;;;;;;;;17.50;83.60;;;;;;4971351;28;19929;-85
2023/07/14 06:08:21;;;;;;;;;;;17.40;82.60;;;;;;4974356;28;19906;-85
2023/07/14 06:11:00;;;;;;;;;;;17.30;82.20;;;;;;4990337;28;19924;-84
2023/07/14 06:13:28;;;;;;;;;;;17.30;82.60;;;;;;4968319;28;20458;-85
2023/07/14 06:15:53;;;;;;;;;;;17.30;81.60;;;;;;4976507;28;19918;-82
2023/07/14 06:18:19;;;;;;;;;;;17.40;82.60;;;;;;4975353;28;19910;-82
2023/07/14 06:20:44;;;;;;;;;;;17.60;82.10;;;;;;4976308;28;19910;-83
2023/07/14 06:23:10;;;;;;;;;;;17.60;82.10;;;;;;4993869;28;19924;-83
2023/07/14 06:25:36;;;;;;;;;;;17.60;82.50;;;;;;4993925;28;20944;-84
2023/07/14 06:28:01;;;;;;;;;;;17.70;81.60;;;;;;4993847;28;19967;-82
2023/07/14 06:30:27;;;;;;;;;;;17.80;80.90;;;;;;4985170;28;20069;-83
2023/07/14 06:32:52;;;;;;;;;;;17.70;81.40;;;;;;4977608;28;19932;-82
2023/07/14 06:35:18;;;;;;;;;;;17.70;80.90;;;;;;4998743;28;19910;-82
2023/07/14 06:37:44;;;;;;;;;;;17.80;79.90;;;;;;4976379;28;19924;-82
2023/07/14 06:40:10;;;;;;;;;;;18.10;80.10;;;;;;5022215;22;19913;-86
2023/07/14 06:42:35;;;;;;;;;;;18.20;80.10;;;;;;5010751;28;19957;-87
2023/07/14 06:45:02;;;;;;;;;;;18.20;79.30;;;;;;4991289;28;19914;-88
2023/07/14 06:47:27;;;;;;;;;;;18.40;79.00;;;;;;4999527;28;19914;-87
2023/07/14 06:49:53;;;;;;;;;;;18.40;78.50;;;;;;4989405;28;20368;-86
2023/07/14 06:52:18;;;;;;;;;;;18.50;77.50;;;;;;5009564;28;20285;-87
2023/07/14 06:54:47;;;;;;;;;;;18.50;76.80;;;;;;4992759;28;19918;-87
2023/07/14 06:57:12;;;;;;;;;;;18.50;76.40;;;;;;4991587;28;20259;-88
2023/07/14 06:59:38;;;;;;;;;;;18.60;77.30;;;;;;4991876;28;19953;-87
2023/07/14 07:02:03;;;;;;;;;;;18.60;77.80;;;;;;5008719;28;19914;-86
2023/07/14 07:04:32;;;;;;;;;;;18.80;76.40;;;;;;5002684;28;19914;-86
2023/07/14 07:06:57;;;;;;;;;;;18.80;75.90;;;;;;4990768;28;19921;-87
2023/07/14 07:09:23;;;;;;;;;;;18.80;76.30;;;;;;4991719;28;19913;-86
2023/07/14 07:11:48;;;;;;;;;;;18.90;75.20;;;;;;4996498;28;20406;-88
2023/07/14 07:14:14;;;;;;;;;;;18.90;74.60;;;;;;4993762;28;19913;-88
2023/07/14 07:16:39;;;;;;;;;;;18.90;74.30;;;;;;4992224;28;19917;-88
2023/07/14 07:19:05;;;;;;;;;;;19.00;75.60;;;;;;4992865;28;19917;-88
2023/07/14 07:21:30;;;;;;;;;;;19.00;75.60;;;;;;4992892;28;19917;-88
2023/07/14 07:23:56;;;;;;;;;;;19.00;74.60;;;;;;4991788;28;19914;-88
2023/07/14 07:26:21;;;;;;;;;;;19.00;74.30;;;;;;4992539;28;19918;-88
2023/07/14 07:28:47;;;;;;;;;;;19.10;74.60;;;;;;4993086;28;20211;-88
2023/07/14 07:31:14;;;;;;;;;;;19.20;74.10;;;;;;4984090;28;19913;-88
2023/07/14 07:33:40;;;;;;;;;;;19.40;73.60;;;;;;4998195;28;19917;-87
2023/07/14 07:36:15;;;;;;;;;;;19.50;72.30;;;;;;5010483;28;19923;-89
2023/07/14 07:38:45;;;;;;;;;;;19.70;71.90;;;;;;4974242;28;19978;-88
2023/07/14 07:41:12;;;;;;;;;;;19.90;72.40;;;;;;4981548;28;19924;-88
2023/07/14 07:43:38;;;;;;;;;;;19.80;70.80;;;;;;4992793;28;19933;-88
2023/07/14 07:46:03;;;;;;;;;;;19.90;70.10;;;;;;4985113;28;20068;-89
2023/07/14 07:48:29;;;;;;;;;;;20.00;69.90;;;;;;4993553;28;19944;-89
2023/07/14 07:50:55;;;;;;;;;;;20.00;70.70;;;;;;4993677;28;19988;-88
2023/07/14 07:53:20;;;;;;;;;;;20.00;70.80;;;;;;4991719;28;19910;-89
2023/07/14 07:55:56;;;;;;;;;;;20.00;69.90;;;;;;4985646;28;20047;-89
2023/07/14 07:58:24;;;;;;;;;;;20.10;70.00;;;;;;4984767;28;19921;-89
2023/07/14 08:00:53;;;;;;;;;;;20.20;69.00;;;;;;4998331;28;19914;-89
2023/07/14 08:03:19;;;;;;;;;;;20.20;68.80;;;;;;4990997;28;20366;-88
2023/07/14 08:05:45;;;;;;;;;;;20.20;69.10;;;;;;4993376;28;19917;-88
2023/07/14 08:08:10;;;;;;;;;;;20.30;69.20;;;;;;4985688;28;19997;-89
2023/07/14 08:10:42;;;;;;;;;;;20.50;68.90;;;;;;4993004;28;20000;-89
2023/07/14 08:13:12;;;;;;;;;;;20.50;68.40;;;;;;4984157;28;19914;-88
2023/07/14 08:15:37;;;;;;;;;;;20.50;67.60;;;;;;4993095;28;19913;-89
2023/07/14 08:18:30;;;;;;;;;;;;;;;;;;;;;
2023/07/14 08:20:56;;;;;;;;;;;20.40;68.30;;;;;;5025944;28;20401;-90
2023/07/14 08:23:22;;;;;;;;;;;20.50;67.70;;;;;;5010657;22;19933;-77
2023/07/14 08:25:56;;;;;;;;;;;20.50;66.20;;;;;;5002825;28;19929;-77
2023/07/14 08:28:22;;;;;;;;;;;20.50;67.40;;;;;;4972764;28;20324;-78
2023/07/14 08:30:49;;;;;;;;;;;20.50;68.90;;;;;;4981568;28;19910;-78
2023/07/14 08:33:16;;;;;;;;;;;20.60;69.50;;;;;;4989812;28;20000;-77
2023/07/14 08:35:41;;;;;;;;;;;20.80;66.90;;;;;;4978573;22;19938;-89
2023/07/14 08:38:06;;;;;;;;;;;20.80;66.40;;;;;;4958947;28;19955;-89
2023/07/14 08:40:38;;;;;;;;;;;20.90;67.10;;;;;;4969760;28;19910;-89
2023/07/14 08:43:04;;;;;;;;;;;20.90;67.70;;;;;;4970171;28;20444;-90
2023/07/14 08:45:53;;;;;;;;;;;21.10;67.70;;;;;;4969935;28;19949;-89
2023/07/14 08:48:27;;;;;;;;;;;21.10;64.70;;;;;;4970358;28;20086;-89
2023/07/14 08:50:55;;;;;;;;;;;21.30;62.50;;;;;;4971337;28;19910;-89
2023/07/14 08:53:23;;;;;;;;;;;21.40;62.50;;;;;;4969799;28;20379;-89
2023/07/14 08:55:48;;;;;;;;;;;21.50;62.70;;;;;;4969463;28;20299;-90
2023/07/14 08:58:22;;;;;;;;;;;21.70;62.20;;;;;;4969767;28;19910;-89
2023/07/14 09:00:50;;;;;;;;;;;21.70;62.40;;;;;;4971879;28;19914;-90
2023/07/14 09:03:18;;;;;;;;;;;21.70;63.80;;;;;;4969921;28;19914;-90
2023/07/14 09:06:03;;;;;;;;;;;21.60;64.60;;;;;;4969527;28;19910;-90
2023/07/14 09:08:29;;;;;;;;;;;21.70;62.70;;;;;;4969346;28;19918;-89
2023/07/14 09:10:58;;;;;;;;;;;21.70;63.50;;;;;;4970257;28;19910;-89
2023/07/14 09:13:46;;;;;;;;;;;21.80;62.00;;;;;;4969528;28;20236;-89
2023/07/14 09:16:12;;;;;;;;;;;21.80;60.00;;;;;;4969810;28;20306;-89
2023/07/14 09:18:46;;;;;;;;;;;21.90;61.00;;;;;;5048316;28;19922;-89
2023/07/14 09:21:15;;;;;;;;;;;22.10;60.00;;;;;;4972434;28;20402;-90
2023/07/14 09:23:44;;;;;;;;;;;22.40;58.20;;;;;;4973706;28;19914;-90
2023/07/14 09:26:10;;;;;;;;;;;22.40;58.50;;;;;;4973425;28;19910;-89
2023/07/14 09:28:37;;;;;;;;;;;22.50;58.20;;;;;;4974044;28;19925;-89
2023/07/14 09:31:21;;;;;;;;;;;22.60;58.20;;;;;;4975628;28;19910;-90
2023/07/14 09:33:48;;;;;;;;;;;22.80;57.00;;;;;;4973916;28;19910;-89
2023/07/14 09:36:14;;;;;;;;;;;23.00;57.00;;;;;;4970239;28;20359;-89
2023/07/14 09:38:54;;;;;;;;;;;23.00;57.30;;;;;;4973631;28;20017;-89
2023/07/14 09:41:22;;;;;;;;;;;23.00;57.10;;;;;;4974371;28;19910;-90
2023/07/14 09:43:47;;;;;;;;;;;22.90;57.10;;;;;;4973395;28;20028;-90
2023/07/14 09:46:14;;;;;;;;;;;22.80;56.70;;;;;;4972910;28;19979;-90
2023/07/14 09:48:50;;;;;;;;;;;22.80;57.70;;;;;;5009785;28;19917;-90
2023/07/14 09:51:17;;;;;;;;;;;22.90;58.10;;;;;;4999087;28;19909;-89
2023/07/14 09:53:56;;;;;;;;;;;23.20;57.30;;;;;;5031385;28;19921;-90
2023/07/14 09:56:24;;;;;;;;;;;23.40;54.90;;;;;;4985183;28;19925;-90
2023/07/14 09:58:53;;;;;;;;;;;23.50;54.10;;;;;;4973768;28;19918;-90
2023/07/14 10:01:19;;;;;;;;;;;23.60;53.70;;;;;;4974027;28;19910;-89
2023/07/14 10:03:51;;;;;;;;;;;23.80;52.50;;;;;;4973644;28;19956;-90
2023/07/14 10:06:26;;;;;;;;;;;23.60;51.70;;;;;;4972862;28;20334;-90
2023/07/14 10:09:11;;;;;;;;;;;23.50;51.70;;;;;;4972666;28;19975;-90
2023/07/14 10:11:41;;;;;;;;;;;23.60;52.30;;;;;;4972989;28;19973;-90
2023/07/14 10:14:19;;;;;;;;;;;23.70;52.10;;;;;;4972391;28;19945;-89
2023/07/14 10:16:45;;;;;;;;;;;23.80;51.10;;;;;;4972700;28;19914;-90
2023/07/14 10:19:13;;;;;;;;;;;24.00;51.50;;;;;;4973476;28;20000;-89
2023/07/14 10:21:48;;;;;;;;;;;24.10;50.30;;;;;;4999718;28;19932;-90
2023/07/14 10:24:18;;;;;;;;;;;24.10;50.60;;;;;;4972553;28;19910;-89
2023/07/14 10:26:51;;;;;;;;;;;24.30;51.30;;;;;;4972390;28;20001;-90
2023/07/14 10:29:18;;;;;;;;;;;24.30;50.20;;;;;;4973630;28;19910;-89
2023/07/14 10:31:56;;;;;;;;;;;24.30;50.50;;;;;;4981533;28;19918;-89
2023/07/14 10:34:22;;;;;;;;;;;24.30;48.90;;;;;;4976005;28;20380;-89
2023/07/14 10:36:48;;;;;;;;;;;24.30;49.40;;;;;;4993203;28;20107;-90
2023/07/14 10:39:18;;;;;;;;;;;24.40;50.40;;;;;;4981313;28;19910;-90
2023/07/14 10:41:45;;;;;;;;;;;24.50;48.70;;;;;;4975799;28;19910;-90
2023/07/14 10:44:13;;;;;;;;;;;24.50;49.00;;;;;;4977534;28;20008;-90
2023/07/14 10:46:44;;;;;;;;;;;24.40;50.20;;;;;;4978038;28;19916;-89
2023/07/14 10:49:15;;;;;;;;;;;24.30;49.50;;;;;;4975597;28;20290;-90
2023/07/14 10:51:44;;;;;;;;;;;24.20;51.00;;;;;;4975192;28;19914;-90
2023/07/14 10:54:14;;;;;;;;;;;24.20;50.10;;;;;;4992691;28;19918;-90
2023/07/14 10:56:46;;;;;;;;;;;24.40;50.30;;;;;;4975300;28;19921;-91
2023/07/14 10:59:15;;;;;;;;;;;24.40;49.10;;;;;;4975502;28;19914;-90
2023/07/14 11:01:49;;;;;;;;;;;24.30;50.90;;;;;;4992910;28;19976;-90
2023/07/14 11:04:28;;;;;;;;;;;24.30;50.90;;;;;;4975036;28;19972;-90
2023/07/14 11:06:54;;;;;;;;;;;24.40;49.60;;;;;;4992936;28;19917;-90
2023/07/14 11:09:19;;;;;;;;;;;24.50;49.50;;;;;;4975311;28;20324;-89
2023/07/14 11:11:51;;;;;;;;;;;24.50;49.70;;;;;;4975208;28;20002;-90
2023/07/14 11:14:20;;;;;;;;;;;24.50;49.90;;;;;;4992295;28;19949;-90
2023/07/14 11:16:50;;;;;;;;;;;24.60;51.10;;;;;;4955826;28;19918;-90
2023/07/14 11:19:21;;;;;;;;;;;24.80;50.60;;;;;;4971844;28;19929;-89
2023/07/14 11:22:00;;;;;;;;;;;24.90;50.70;;;;;;4985405;28;19914;-91
2023/07/14 11:24:30;;;;;;;;;;;25.00;50.20;;;;;;4983572;28;20382;-91
2023/07/14 11:27:09;;;;;;;;;;;25.10;48.90;;;;;;4976554;28;20375;-91
2023/07/14 11:29:41;;;;;;;;;;;25.10;48.80;;;;;;4974757;28;19910;-90
2023/07/14 11:32:12;;;;;;;;;;;25.10;49.80;;;;;;4975334;28;19910;-90
2023/07/14 11:34:43;;;;;;;;;;;25.00;49.70;;;;;;4974877;28;19914;-90
2023/07/14 11:37:15;;;;;;;;;;;24.80;48.40;;;;;;4975154;28;19928;-90
2023/07/14 11:39:51;;;;;;;;;;;24.80;49.10;;;;;;4975392;28;19910;-90
2023/07/14 11:42:19;;;;;;;;;;;24.80;50.00;;;;;;4974777;28;19910;-90
2023/07/14 11:44:45;;;;;;;;;;;25.00;47.70;;;;;;4974268;28;19910;-90
2023/07/14 11:47:24;;;;;;;;;;;25.00;46.50;;;;;;4992006;28;19920;-90
2023/07/14 11:49:51;;;;;;;;;;;25.00;48.80;;;;;;4975640;28;20489;-90
2023/07/14 11:52:22;;;;;;;;;;;25.00;50.80;;;;;;4975302;28;19914;-90
2023/07/14 11:54:56;;;;;;;;;;;25.10;48.60;;;;;;4983308;28;19948;-91
2023/07/14 11:57:22;;;;;;;;;;;25.20;47.50;;;;;;4991813;28;19921;-89
2023/07/14 12:00:17;;;;;;;;;;;25.20;46.40;;;;;;4974043;28;19910;-90
2023/07/14 12:02:42;;;;;;;;;;;25.20;47.10;;;;;;4974536;28;19909;-90
2023/07/14 12:05:14;;;;;;;;;;;25.20;49.00;;;;;;4973983;28;20022;-90
2023/07/14 12:08:00;;;;;;;;;;;25.30;46.80;;;;;;4975055;28;20373;-90
2023/07/14 12:10:37;;;;;;;;;;;25.50;48.50;;;;;;4994387;28;20367;-90
2023/07/14 12:13:18;;;;;;;;;;;25.70;49.10;;;;;;4973831;28;19925;-90
2023/07/14 12:15:56;;;;;;;;;;;25.70;46.40;;;;;;4973556;28;20009;-90
2023/07/14 12:18:21;;;;;;;;;;;25.60;48.40;;;;;;4974493;28;19918;-90
2023/07/14 12:20:47;;;;;;;;;;;25.80;47.50;;;;;;4974360;28;20294;-91
2023/07/14 12:23:16;;;;;;;;;;;25.60;45.80;;;;;;4974217;28;20366;-90
2023/07/14 12:25:43;;;;;;;;;;;25.50;46.40;;;;;;4973112;28;19914;-90
2023/07/14 12:28:15;;;;;;;;;;;25.50;48.60;;;;;;4991212;28;20000;-90
2023/07/14 12:30:45;;;;;;;;;;;25.50;49.00;;;;;;4974618;28;19916;-90
2023/07/14 12:33:13;;;;;;;;;;;25.80;48.10;;;;;;4973910;28;19914;-91
2023/07/14 12:35:39;;;;;;;;;;;25.70;47.20;;;;;;4971038;28;19925;-90
2023/07/14 12:38:13;;;;;;;;;;;25.90;46.70;;;;;;4961009;28;19914;-90
2023/07/14 12:40:39;;;;;;;;;;;25.90;46.10;;;;;;4974003;28;19910;-90
2023/07/14 12:43:06;;;;;;;;;;;26.10;45.10;;;;;;4973350;28;20008;-89
2023/07/14 12:45:33;;;;;;;;;;;25.80;45.60;;;;;;4973622;28;19933;-90
2023/07/14 12:48:01;;;;;;;;;;;25.60;45.00;;;;;;4974194;28;19917;-90
2023/07/14 12:50:26;;;;;;;;;;;25.70;45.20;;;;;;4984077;28;19932;-90
2023/07/14 12:52:55;;;;;;;;;;;25.60;45.70;;;;;;4985950;28;19918;-91
2023/07/14 12:55:24;;;;;;;;;;;25.70;46.00;;;;;;4975176;28;19913;-91
2023/07/14 12:57:49;;;;;;;;;;;25.80;46.10;;;;;;4974990;28;19964;-90
2023/07/14 13:00:33;;;;;;;;;;;25.80;48.50;;;;;;4982541;28;19910;-91
2023/07/14 13:02:59;;;;;;;;;;;25.70;48.10;;;;;;4971572;28;19910;-90
2023/07/14 13:05:30;;;;;;;;;;;25.90;43.70;;;;;;4976498;28;20005;-90
2023/07/14 13:07:56;;;;;;;;;;;25.90;45.00;;;;;;4977231;28;19971;-90
2023/07/14 13:10:24;;;;;;;;;;;26.00;44.20;;;;;;4977299;28;20386;-90
2023/07/14 13:12:55;;;;;;;;;;;26.10;44.10;;;;;;4976803;28;20463;-90
2023/07/14 13:15:21;;;;;;;;;;;26.10;43.90;;;;;;4976886;28;19914;-90
2023/07/14 13:17:48;;;;;;;;;;;26.20;43.60;;;;;;4994620;28;19958;-90
2023/07/14 13:20:23;;;;;;;;;;;26.30;45.30;;;;;;4976961;28;20263;-90
2023/07/14 13:23:07;;;;;;;;;;;26.10;47.10;;;;;;4977756;28;19916;-90
2023/07/14 13:25:39;;;;;;;;;;;26.10;45.60;;;;;;4994312;28;19910;-90
2023/07/14 13:28:24;;;;;;;;;;;26.00;45.30;;;;;;4977469;28;20378;-90
2023/07/14 13:30:49;;;;;;;;;;;26.00;46.70;;;;;;4976671;28;19910;-91
2023/07/14 13:33:15;;;;;;;;;;;25.90;47.70;;;;;;4976915;28;19958;-90
2023/07/14 13:35:52;;;;;;;;;;;25.90;45.60;;;;;;4976451;28;20387;-91
2023/07/14 13:38:17;;;;;;;;;;;25.90;44.50;;;;;;4976911;28;20010;-90
2023/07/14 13:40:43;;;;;;;;;;;26.20;44.20;;;;;;4977381;28;19914;-90
2023/07/14 13:43:14;;;;;;;;;;;26.10;45.40;;;;;;4976770;28;20068;-90
2023/07/14 13:45:44;;;;;;;;;;;26.20;44.90;;;;;;4976331;28;19941;-90
2023/07/14 13:48:34;;;;;;;;;;;26.20;45.10;;;;;;4976693;28;19963;-89
2023/07/14 13:51:01;;;;;;;;;;;26.40;43.80;;;;;;4973117;28;20002;-91
2023/07/14 13:53:30;;;;;;;;;;;26.70;43.00;;;;;;4973614;28;20088;-91
2023/07/14 13:55:57;;;;;;;;;;;26.80;43.90;;;;;;4976559;28;19949;-90
2023/07/14 13:58:23;;;;;;;;;;;26.80;43.10;;;;;;4976720;28;19917;-90
2023/07/14 14:00:49;;;;;;;;;;;26.70;43.90;;;;;;4994130;28;20272;-90
2023/07/14 14:03:15;;;;;;;;;;;26.70;45.10;;;;;;4976468;28;19910;-91
2023/07/14 14:05:41;;;;;;;;;;;26.80;43.50;;;;;;5016912;28;19915;-91
2023/07/14 14:08:11;;;;;;;;;;;27.00;43.60;;;;;;4976898;28;19956;-91
2023/07/14 14:10:36;;;;;;;;;;;27.00;42.10;;;;;;4976105;28;19910;-90
2023/07/14 14:13:04;;;;;;;;;;;26.80;42.40;;;;;;4993918;28;19963;-90
2023/07/14 14:15:34;;;;;;;;;;;26.70;42.90;;;;;;4976773;28;19910;-90
2023/07/14 14:18:03;;;;;;;;;;;26.60;43.00;;;;;;4989507;28;19910;-91
2023/07/14 14:20:31;;;;;;;;;;;26.50;44.20;;;;;;4991570;28;19956;-91
2023/07/14 14:22:58;;;;;;;;;;;26.20;45.70;;;;;;4978418;28;19910;-91
2023/07/14 14:25:25;;;;;;;;;;;26.20;44.00;;;;;;4977310;28;19936;-89
2023/07/14 14:27:51;;;;;;;;;;;26.20;45.00;;;;;;4976870;28;20294;-89
2023/07/14 14:30:17;;;;;;;;;;;26.40;43.70;;;;;;4976325;28;19910;-89
2023/07/14 14:32:44;;;;;;;;;;;26.40;43.20;;;;;;4976881;28;19953;-88